Time;durP1;ratioP1;P1;durP2;ratioP2;P2;SDS_P1;SDS_P2;PMS_P1;PMS_P2;Temp;Humidity;BMP_temperature;BMP_pressure;BME280_temperature;BME280_humidity;BME280_pressure;Samples;Min_cycle;Max_cycle;Signal;HPM_P1;HPM_P2
2021/03/28 00:02:09;;;;;;;;;;;;;;;19.29;36.48;101852.00;5114730;28;1008;-57
2021/03/28 00:04:42;;;;;;;;;;;;;;;20.02;35.31;101853.22;5115933;28;878;-59
2021/03/28 00:07:07;;;;;;;;;;;;;;;20.79;33.72;101845.09;5114393;28;871;-56
2021/03/28 00:09:36;;;;;;;;;;;;;;;20.56;34.01;101843.69;5115011;28;975;-55
2021/03/28 00:12:07;;;;;;;;;;;;;;;20.42;34.11;101846.16;5116324;28;787;-59
2021/03/28 00:14:39;;;;;;;;;;;;;;;19.55;35.74;101841.13;5116182;28;1985;-55
2021/03/28 00:17:27;;;;;;;;;;;;;;;19.88;35.43;101839.09;5116764;28;803;-56
2021/03/28 00:19:53;;;;;;;;;;;;;;;20.87;33.51;101840.97;5108157;28;1837;-55
2021/03/28 00:22:19;;;;;;;;;;;;;;;20.50;34.27;101840.09;5110313;28;1050;-55
2021/03/28 00:24:55;;;;;;;;;;;;;;;20.53;33.83;101836.78;5137097;28;826;-58
2021/03/28 00:27:21;;;;;;;;;;;;;;;19.71;35.73;101839.28;5136809;28;893;-51
2021/03/28 00:29:52;;;;;;;;;;;;;;;19.26;36.48;101842.34;5135677;28;775;-50
2021/03/28 00:32:56;;;;;;;;;;;;;;;20.37;34.46;101841.47;5137644;28;795;-54
2021/03/28 00:35:22;;;;;;;;;;;;;;;20.38;34.34;101834.81;5073273;28;1989;-53
2021/03/28 00:37:57;;;;;;;;;;;;;;;20.38;34.41;101831.22;5073426;28;1009;-54
2021/03/28 00:40:23;;;;;;;;;;;;;;;19.76;35.49;101834.59;5097667;28;911;-54
2021/03/28 00:42:48;;;;;;;;;;;;;;;19.26;36.49;101842.34;5135400;28;790;-54
2021/03/28 00:45:32;;;;;;;;;;;;;;;20.17;34.68;101834.78;5135794;28;850;-56
2021/03/28 00:48:04;;;;;;;;;;;;;;;20.67;33.62;101828.78;5136903;27;846;-54
2021/03/28 00:50:37;;;;;;;;;;;;;;;20.52;33.97;101829.59;5136639;28;1172;-56
2021/03/28 00:53:04;;;;;;;;;;;;;;;20.21;34.66;101829.53;5119989;27;2092;-57
2021/03/28 00:55:40;;;;;;;;;;;;;;;19.31;36.55;101828.59;5122992;27;1917;-50
2021/03/28 00:58:13;;;;;;;;;;;;;;;19.76;35.48;101823.56;5121737;27;764;-51
2021/03/28 01:00:53;;;;;;;;;;;;;;;20.70;33.63;101825.47;5122639;27;1144;-56
2021/03/28 01:03:32;;;;;;;;;;;;;;;20.37;34.36;101827.66;5140438;27;833;-57
2021/03/28 01:05:59;;;;;;;;;;;;;;;20.37;34.44;101821.28;5139890;27;969;-52
2021/03/28 01:08:27;;;;;;;;;;;;;;;19.72;35.43;101822.44;5139290;27;759;-54
2021/03/28 01:11:16;;;;;;;;;;;;;;;19.40;36.09;101820.63;5139965;27;888;-58
2021/03/28 01:13:52;;;;;;;;;;;;;;;20.22;34.49;101819.34;5131762;27;1143;-51
2021/03/28 01:16:24;;;;;;;;;;;;;;;20.64;33.59;101821.03;5140758;27;1914;-54
2021/03/28 01:18:52;;;;;;;;;;;;;;;20.39;34.55;101810.81;5140020;27;858;-61
2021/03/28 01:21:18;;;;;;;;;;;;;;;20.09;34.60;101820.66;5139825;27;960;-53
2021/03/28 01:23:44;;;;;;;;;;;;;;;19.38;36.37;101820.06;5140250;27;818;-55
2021/03/28 01:26:09;;;;;;;;;;;;;;;19.68;35.64;101813.03;5138032;27;1034;-61
2021/03/28 01:28:41;;;;;;;;;;;;;;;20.64;33.86;101807.22;5140086;27;723;-53
2021/03/28 01:31:19;;;;;;;;;;;;;;;20.49;33.95;101814.38;5140083;27;767;-52
2021/03/28 01:33:49;;;;;;;;;;;;;;;20.48;34.02;101809.13;5139747;27;736;-56
2021/03/28 01:36:23;;;;;;;;;;;;;;;19.94;35.08;101815.94;5138207;27;1909;-63
2021/03/28 01:38:58;;;;;;;;;;;;;;;19.56;35.75;101806.91;5139818;27;743;-63
2021/03/28 01:41:24;;;;;;;;;;;;;;;20.63;33.72;101808.31;5139429;27;809;-55
2021/03/28 01:43:51;;;;;;;;;;;;;;;20.28;34.35;101809.94;5138619;27;831;-54
2021/03/28 01:46:46;;;;;;;;;;;;;;;20.40;34.35;101815.19;5138400;27;766;-53
2021/03/28 01:49:17;;;;;;;;;;;;;;;19.58;35.66;101801.97;5125525;27;1183;-54
2021/03/28 01:52:01;;;;;;;;;;;;;;;19.20;36.80;101807.56;5139267;27;1158;-52
2021/03/28 01:54:36;;;;;;;;;;;;;;;20.50;34.19;101804.19;5137851;27;1988;-49
2021/03/28 01:57:05;;;;;;;;;;;;;;;20.47;34.08;101811.06;5139551;27;846;-58
2021/03/28 01:59:33;;;;;;;;;;;;;;;20.41;34.08;101808.56;5139547;27;751;-53
2021/03/28 02:02:17;;;;;;;;;;;;;;;20.10;34.79;101806.59;5139100;27;791;-53
2021/03/28 02:05:01;;;;;;;;;;;;;;;19.30;36.50;101806.78;5138275;27;754;-53
2021/03/28 02:07:30;;;;;;;;;;;;;;;20.41;34.19;101805.81;5137265;27;1060;-61
2021/03/28 02:10:10;;;;;;;;;;;;;;;20.66;33.81;101807.75;5137983;27;878;-62
2021/03/28 02:12:38;;;;;;;;;;;;;;;20.49;34.02;101802.50;5139526;27;878;-50
2021/03/28 02:15:25;;;;;;;;;;;;;;;20.01;34.76;101802.72;5137903;27;1909;-52
2021/03/28 02:18:20;;;;;;;;;;;;;;;19.19;36.45;101796.81;5137557;27;751;-52
2021/03/28 02:20:54;;;;;;;;;;;;;;;20.21;34.56;101809.38;5125198;27;1502;-52
2021/03/28 02:23:38;;;;;;;;;;;;;;;21.06;33.14;101810.81;5117282;28;1050;-55
2021/03/28 02:26:22;;;;;;;;;;;;;;;21.41;32.24;101800.78;5117959;28;830;-53
2021/03/28 02:28:47;;;;;;;;;;;;;;;20.77;33.54;101798.38;5118189;28;748;-61
2021/03/28 02:31:31;;;;;;;;;;;;;;;20.45;34.07;101807.75;5118281;28;783;-52
2021/03/28 02:34:15;;;;;;;;;;;;;;;19.86;35.42;101808.19;5118269;28;827;-50
2021/03/28 02:36:41;;;;;;;;;;;;;;;19.40;36.14;101804.06;5117706;28;1001;-53
2021/03/28 02:39:36;;;;;;;;;;;;;;;19.91;35.52;101808.19;5117742;28;866;-49
2021/03/28 02:42:01;;;;;;;;;;;;;;;20.79;33.38;101800.88;5099747;28;1098;-55
2021/03/28 02:44:46;;;;;;;;;;;;;;;20.50;34.04;101805.00;5117696;28;1012;-50
2021/03/28 02:47:15;;;;;;;;;;;;;;;20.12;34.87;101792.53;5116314;28;764;-52
2021/03/28 02:49:59;;;;;;;;;;;;;;;19.49;36.05;101796.16;5118240;28;1091;-51
2021/03/28 02:52:27;;;;;;;;;;;;;;;19.48;36.21;101795.28;5117412;28;1021;-53
2021/03/28 02:55:14;;;;;;;;;;;;;;;20.55;33.94;101792.28;5117380;28;1906;-52
2021/03/28 02:57:41;;;;;;;;;;;;;;;20.45;34.23;101790.34;5116412;28;867;-51
2021/03/28 03:00:11;;;;;;;;;;;;;;;20.52;33.94;101791.75;5117814;28;763;-54
2021/03/28 03:02:36;;;;;;;;;;;;;;;19.94;34.99;101791.09;5117374;28;794;-52
2021/03/28 03:05:05;;;;;;;;;;;;;;;19.32;36.27;101793.56;5117767;28;823;-51
2021/03/28 03:07:39;;;;;;;;;;;;;;;20.41;34.14;101795.63;5115784;28;989;-56
2021/03/28 03:10:08;;;;;;;;;;;;;;;20.73;33.50;101794.53;5117266;28;895;-59
2021/03/28 03:12:42;;;;;;;;;;;;;;;20.45;34.14;101796.69;5115652;28;1315;-47
2021/03/28 03:15:19;;;;;;;;;;;;;;;20.38;34.25;101795.31;5113742;28;1972;-59
2021/03/28 03:18:05;;;;;;;;;;;;;;;19.40;36.15;101798.56;5113687;27;875;-58
2021/03/28 03:20:49;;;;;;;;;;;;;;;20.08;34.96;101800.53;5085413;28;1051;-47
2021/03/28 03:23:33;;;;;;;;;;;;;;;20.82;33.38;101795.63;5135914;27;1205;-50
2021/03/28 03:26:17;;;;;;;;;;;;;;;20.42;34.06;101800.00;5137733;27;842;-51
2021/03/28 03:28:48;;;;;;;;;;;;;;;20.15;34.88;101806.59;5138032;27;850;-49
2021/03/28 03:31:16;;;;;;;;;;;;;;;19.52;35.83;101805.78;5137562;27;774;-49
2021/03/28 03:33:42;;;;;;;;;;;;;;;20.14;35.13;101813.22;5119285;27;825;-54
2021/03/28 03:36:10;;;;;;;;;;;;;;;20.85;33.36;101811.66;5137263;27;1914;-53
2021/03/28 03:38:39;;;;;;;;;;;;;;;20.42;34.15;101813.00;5137524;27;854;-59
2021/03/28 03:41:04;;;;;;;;;;;;;;;20.30;34.40;101810.50;5137262;27;775;-70
2021/03/28 03:43:30;;;;;;;;;;;;;;;19.48;36.03;101814.59;5137720;27;771;-57
2021/03/28 03:46:01;;;;;;;;;;;;;;;19.43;36.40;101816.50;5137489;27;846;-63
2021/03/28 03:48:44;;;;;;;;;;;;;;;20.60;33.88;101819.94;5137390;27;735;-55
2021/03/28 03:51:28;;;;;;;;;;;;;;;20.50;33.97;101816.03;5135771;28;1034;-56
2021/03/28 03:54:13;;;;;;;;;;;;;;;20.37;34.52;101822.13;5136093;27;1421;-54
2021/03/28 03:56:41;;;;;;;;;;;;;;;19.57;35.82;101830.66;5121026;28;1909;-49
2021/03/28 03:59:08;;;;;;;;;;;;;;;19.34;36.52;101820.88;5128412;28;806;-49
2021/03/28 04:01:56;;;;;;;;;;;;;;;20.48;34.26;101829.31;5135894;28;1014;-52
2021/03/28 04:04:37;;;;;;;;;;;;;;;20.41;34.37;101828.75;5123410;28;1102;-48
2021/03/28 04:07:06;;;;;;;;;;;;;;;20.54;33.92;101826.53;5116439;28;938;-49
2021/03/28 04:09:40;;;;;;;;;;;;;;;20.06;34.55;101837.78;5115161;28;827;-47
2021/03/28 04:12:06;;;;;;;;;;;;;;;19.56;35.51;101832.59;5098523;28;1327;-58
2021/03/28 04:14:40;;;;;;;;;;;;;;;19.30;36.00;101840.69;5116613;28;1909;-44
2021/03/28 04:17:24;;;;;;;;;;;;;;;19.70;35.48;101840.38;5116342;28;866;-44
2021/03/28 04:20:08;;;;;;;;;;;;;;;19.60;35.59;101843.91;5116768;28;803;-45
2021/03/28 04:22:37;;;;;;;;;;;;;;;20.48;33.86;101845.91;5116049;28;950;-60
2021/03/28 04:25:21;;;;;;;;;;;;;;;20.36;33.83;101845.31;5116550;28;847;-45
2021/03/28 04:27:55;;;;;;;;;;;;;;;20.22;34.52;101841.44;5117828;28;780;-45
2021/03/28 04:30:39;;;;;;;;;;;;;;;19.65;35.17;101849.47;5115619;28;1172;-47
2021/03/28 04:33:14;;;;;;;;;;;;;;;19.66;35.72;101840.09;5120542;28;866;-44
2021/03/28 04:36:02;;;;;;;;;;;;;;;20.68;33.56;101844.28;5119952;28;1983;-47
2021/03/28 04:38:27;;;;;;;;;;;;;;;20.32;34.11;101844.19;5099003;28;768;-45
2021/03/28 04:40:52;;;;;;;;;;;;;;;20.40;33.75;101843.66;5115332;28;759;-48
2021/03/28 04:43:18;;;;;;;;;;;;;;;19.63;35.24;101851.66;5120427;28;948;-62
2021/03/28 04:45:43;;;;;;;;;;;;;;;19.19;36.38;101846.44;5119917;28;866;-47
2021/03/28 04:48:24;;;;;;;;;;;;;;;20.15;34.50;101842.50;5120362;28;764;-50
2021/03/28 04:50:49;;;;;;;;;;;;;;;20.60;33.52;101850.31;5119195;28;1023;-59
2021/03/28 04:53:27;;;;;;;;;;;;;;;20.27;34.15;101855.22;5119479;28;937;-52
2021/03/28 04:56:05;;;;;;;;;;;;;;;20.16;34.46;101851.59;5120005;28;1972;-48
2021/03/28 04:58:52;;;;;;;;;;;;;;;19.42;36.01;101862.59;5118542;28;815;-47
2021/03/28 05:01:36;;;;;;;;;;;;;;;19.51;35.84;101853.81;5118049;28;898;-48
2021/03/28 05:04:20;;;;;;;;;;;;;;;20.51;33.79;101861.91;5119841;28;810;-52
2021/03/28 05:07:11;;;;;;;;;;;;;;;20.37;33.91;101857.19;5106719;28;966;-51
2021/03/28 05:09:40;;;;;;;;;;;;;;;20.42;34.15;101866.31;5118954;28;774;-62
2021/03/28 05:12:17;;;;;;;;;;;;;;;19.85;34.92;101858.97;5119969;28;771;-52
2021/03/28 05:15:01;;;;;;;;;;;;;;;19.53;35.82;101862.63;5119604;28;1914;-45
2021/03/28 05:17:45;;;;;;;;;;;;;;;20.59;33.73;101862.47;5119815;28;815;-58
2021/03/28 05:20:16;;;;;;;;;;;;;;;20.49;33.66;101872.41;5119785;28;794;-53
2021/03/28 05:22:42;;;;;;;;;;;;;;;20.44;33.97;101877.09;5119075;28;1009;-61
2021/03/28 05:25:26;;;;;;;;;;;;;;;20.05;34.70;101870.09;5119359;28;783;-52
2021/03/28 05:27:58;;;;;;;;;;;;;;;19.43;35.95;101869.75;5118243;28;776;-62
2021/03/28 05:30:23;;;;;;;;;;;;;;;19.69;35.56;101882.88;5119304;28;775;-62
2021/03/28 05:32:59;;;;;;;;;;;;;;;20.68;33.38;101871.94;5119568;28;843;-58
2021/03/28 05:35:28;;;;;;;;;;;;;;;20.46;34.09;101875.72;5117563;28;1921;-56
2021/03/28 05:37:53;;;;;;;;;;;;;;;20.44;33.79;101877.94;5118633;28;976;-60
2021/03/28 05:40:32;;;;;;;;;;;;;;;19.74;35.00;101875.44;5118936;28;806;-49
2021/03/28 05:43:09;;;;;;;;;;;;;;;19.37;36.08;101881.84;5118208;28;763;-61
2021/03/28 05:45:55;;;;;;;;;;;;;;;20.60;33.83;101875.19;5117599;28;851;-47
2021/03/28 05:48:33;;;;;;;;;;;;;;;20.34;34.19;101883.41;5117639;28;743;-60
2021/03/28 05:50:58;;;;;;;;;;;;;;;20.34;34.28;101881.50;5118514;28;1094;-51
2021/03/28 05:53:27;;;;;;;;;;;;;;;19.80;34.97;101879.09;5118643;28;763;-48
2021/03/28 05:56:11;;;;;;;;;;;;;;;19.32;36.14;101888.16;5117624;28;1905;-59
2021/03/28 05:58:55;;;;;;;;;;;;;;;20.52;33.89;101880.16;5118993;28;771;-52
2021/03/28 06:01:29;;;;;;;;;;;;;;;20.47;33.79;101888.44;5118805;28;823;-53
2021/03/28 06:04:21;;;;;;;;;;;;;;;20.41;33.82;101889.53;5118736;28;811;-59
2021/03/28 06:06:48;;;;;;;;;;;;;;;19.72;35.15;101885.09;5094141;28;1189;-53
2021/03/28 06:09:20;;;;;;;;;;;;;;;19.40;36.02;101891.53;5118712;28;798;-58
2021/03/28 06:12:01;;;;;;;;;;;;;;;20.62;33.61;101886.78;5119034;28;907;-59
2021/03/28 06:14:42;;;;;;;;;;;;;;;20.43;34.12;101880.97;5118209;28;1980;-49
2021/03/28 06:17:26;;;;;;;;;;;;;;;20.55;33.87;101883.47;5118340;28;740;-59
2021/03/28 06:19:52;;;;;;;;;;;;;;;19.74;35.41;101886.50;5118518;28;534;-60
2021/03/28 06:22:36;;;;;;;;;;;;;;;19.35;36.23;101883.19;5117619;28;993;-60
2021/03/28 06:25:16;;;;;;;;;;;;;;;20.40;34.08;101882.34;5113098;28;1358;-61
2021/03/28 06:27:51;;;;;;;;;;;;;;;20.61;33.86;101882.41;5108893;28;1067;-58
2021/03/28 06:30:45;;;;;;;;;;;;;;;20.55;33.81;101895.34;5117958;28;885;-58
2021/03/28 06:33:23;;;;;;;;;;;;;;;19.86;34.97;101891.00;5108907;28;1298;-57
2021/03/28 06:36:01;;;;;;;;;;;;;;;19.36;36.03;101896.72;5117813;28;1973;-58
2021/03/28 06:38:45;;;;;;;;;;;;;;;20.44;34.08;101893.66;5097631;28;887;-53
2021/03/28 06:41:23;;;;;;;;;;;;;;;20.47;33.78;101893.13;5097711;28;804;-53
2021/03/28 06:43:52;;;;;;;;;;;;;;;20.55;33.81;101889.81;5096230;28;780;-57
2021/03/28 06:46:27;;;;;;;;;;;;;;;19.76;35.01;101897.25;5097584;28;783;-58
2021/03/28 06:48:56;;;;;;;;;;;;;;;19.61;35.88;101898.00;5096743;28;756;-50
2021/03/28 06:51:30;;;;;;;;;;;;;;;20.72;33.54;101892.38;5098431;28;1044;-47
2021/03/28 06:54:16;;;;;;;;;;;;;;;20.52;34.02;101891.22;5117712;28;824;-49
2021/03/28 06:56:41;;;;;;;;;;;;;;;20.38;33.89;101890.06;5116267;28;1901;-47
2021/03/28 06:59:25;;;;;;;;;;;;;;;19.74;35.35;101892.00;5117529;28;775;-62
2021/03/28 07:01:57;;;;;;;;;;;;;;;19.98;34.85;101895.19;5117752;28;755;-58
2021/03/28 07:04:25;;;;;;;;;;;;;;;20.80;33.33;101891.00;5117441;28;795;-53
2021/03/28 07:06:51;;;;;;;;;;;;;;;20.44;33.90;101894.50;5116551;28;933;-58
2021/03/28 07:09:25;;;;;;;;;;;;;;;20.52;34.02;101888.47;5116361;28;803;-53
2021/03/28 07:12:05;;;;;;;;;;;;;;;19.57;35.58;101896.88;5117386;28;870;-48
2021/03/28 07:14:50;;;;;;;;;;;;;;;19.73;35.59;101895.88;5115707;28;1996;-49
2021/03/28 07:17:33;;;;;;;;;;;;;;;20.70;33.73;101902.88;5117535;28;779;-59
2021/03/28 07:20:05;;;;;;;;;;;;;;;20.27;34.31;101891.13;5115976;28;922;-47
2021/03/28 07:22:31;;;;;;;;;;;;;;;20.25;34.35;101891.41;5116886;28;965;-57
2021/03/28 07:25:06;;;;;;;;;;;;;;;19.58;35.60;101896.59;5116069;28;759;-48
2021/03/28 07:27:47;;;;;;;;;;;;;;;19.88;35.19;101895.16;5117349;28;735;-58
2021/03/28 07:30:20;;;;;;;;;;;;;;;20.85;33.25;101893.78;5117455;28;789;-54
2021/03/28 07:32:51;;;;;;;;;;;;;;;20.41;34.02;101895.06;5098688;28;808;-57
2021/03/28 07:35:17;;;;;;;;;;;;;;;20.41;34.06;101894.22;5116688;28;1985;-58
2021/03/28 07:37:51;;;;;;;;;;;;;;;19.39;36.04;101896.22;5116971;28;1001;-50
2021/03/28 07:40:27;;;;;;;;;;;;;;;20.28;34.39;101901.09;5117313;28;804;-54
2021/03/28 07:43:11;;;;;;;;;;;;;;;20.71;33.50;101890.72;5116736;28;755;-49
2021/03/28 07:45:54;;;;;;;;;;;;;;;20.47;34.13;101893.97;5117081;28;819;-59
2021/03/28 07:48:29;;;;;;;;;;;;;;;19.69;35.36;101899.44;5116810;28;826;-52
2021/03/28 07:51:13;;;;;;;;;;;;;;;19.47;36.18;101892.97;5115232;28;1169;-51
2021/03/28 07:53:57;;;;;;;;;;;;;;;20.62;33.80;101895.09;5116751;28;684;-47
2021/03/28 07:56:32;;;;;;;;;;;;;;;20.34;34.36;101895.31;5116680;28;1905;-55
2021/03/28 07:58:57;;;;;;;;;;;;;;;20.44;33.94;101897.28;5115584;28;808;-58
2021/03/28 08:01:32;;;;;;;;;;;;;;;19.35;36.19;101897.00;5117283;28;850;-53
2021/03/28 08:04:16;;;;;;;;;;;;;;;19.95;35.30;101890.22;5119837;28;810;-54
2021/03/28 08:06:52;;;;;;;;;;;;;;;20.76;33.64;101890.72;5120355;28;934;-51
2021/03/28 08:09:34;;;;;;;;;;;;;;;20.33;34.33;101895.59;5119838;28;763;-55
2021/03/28 08:12:07;;;;;;;;;;;;;;;20.06;35.01;101896.59;5120708;28;783;-48
2021/03/28 08:14:36;;;;;;;;;;;;;;;19.30;36.36;101892.28;5119677;28;1905;-51
2021/03/28 08:17:11;;;;;;;;;;;;;;;20.33;34.34;101890.88;5120666;28;850;-46
2021/03/28 08:19:42;;;;;;;;;;;;;;;20.58;34.06;101892.06;5120581;28;791;-54
2021/03/28 08:22:14;;;;;;;;;;;;;;;20.45;34.29;101900.84;5120342;28;946;-57
2021/03/28 08:24:55;;;;;;;;;;;;;;;19.66;35.36;101895.28;5120750;28;743;-50
2021/03/28 08:27:35;;;;;;;;;;;;;;;19.41;36.31;101890.44;5120453;28;847;-56
2021/03/28 08:30:01;;;;;;;;;;;;;;;19.45;36.31;101884.09;5120686;28;870;-59
2021/03/28 08:32:29;;;;;;;;;;;;;;;19.31;36.39;101891.19;5120490;28;767;-54
2021/03/28 08:34:58;;;;;;;;;;;;;;;19.80;35.46;101884.63;5120143;28;1913;-58
2021/03/28 08:37:23;;;;;;;;;;;;;;;19.77;35.44;101885.94;5118951;28;1259;-58
2021/03/28 08:40:07;;;;;;;;;;;;;;;20.01;35.18;101885.53;5120384;28;771;-59
2021/03/28 08:42:33;;;;;;;;;;;;;;;20.07;34.92;101881.69;5120277;28;767;-58
2021/03/28 08:45:06;;;;;;;;;;;;;;;20.26;34.37;101876.50;5120261;28;881;-56
2021/03/28 08:47:55;;;;;;;;;;;;;;;20.28;34.31;101873.47;5119252;28;771;-58
2021/03/28 08:50:21;;;;;;;;;;;;;;;20.41;34.33;101878.50;5111463;28;1248;-56
2021/03/28 08:53:05;;;;;;;;;;;;;;;20.51;33.90;101870.22;5119565;28;946;-53
2021/03/28 08:55:30;;;;;;;;;;;;;;;20.51;33.87;101872.16;5120025;28;1993;-57
2021/03/28 08:58:07;;;;;;;;;;;;;;;20.68;33.55;101867.22;5119925;28;723;-56
2021/03/28 09:00:51;;;;;;;;;;;;;;;20.73;33.42;101874.69;5118726;28;700;-56
2021/03/28 09:03:23;;;;;;;;;;;;;;;20.72;33.74;101859.22;5118556;28;934;-57
2021/03/28 09:05:56;;;;;;;;;;;;;;;20.76;33.70;101862.25;5118327;28;905;-56
2021/03/28 09:08:31;;;;;;;;;;;;;;;20.94;33.12;101869.16;5118255;28;890;-55
2021/03/28 09:11:15;;;;;;;;;;;;;;;20.87;33.23;101868.63;5118788;28;490;-52
2021/03/28 09:13:50;;;;;;;;;;;;;;;20.91;33.15;101856.72;5117523;28;786;-47
2021/03/28 09:16:15;;;;;;;;;;;;;;;21.03;33.15;101865.56;5119006;28;1980;-55
2021/03/28 09:18:44;;;;;;;;;;;;;;;20.89;33.45;101861.69;5119725;28;763;-52
2021/03/28 09:21:30;;;;;;;;;;;;;;;20.80;33.51;101866.97;5119518;28;997;-56
2021/03/28 09:24:20;;;;;;;;;;;;;;;20.85;33.24;101855.88;5087948;28;1067;-52
2021/03/28 09:26:51;;;;;;;;;;;;;;;20.98;33.37;101865.56;5118174;28;850;-55
2021/03/28 09:29:33;;;;;;;;;;;;;;;21.14;32.90;101855.31;5117986;28;1097;-58
2021/03/28 09:32:06;;;;;;;;;;;;;;;21.05;32.96;101861.69;5118593;28;818;-51
2021/03/28 09:34:50;;;;;;;;;;;;;;;21.15;32.84;101856.16;5117439;28;1901;-52
2021/03/28 09:37:18;;;;;;;;;;;;;;;21.11;32.89;101855.03;5118644;28;894;-46
2021/03/28 09:40:03;;;;;;;;;;;;;;;20.85;33.53;101853.13;5117833;28;934;-44
2021/03/28 09:42:35;;;;;;;;;;;;;;;20.95;33.28;101859.78;5117697;28;1250;-53
2021/03/28 09:45:18;;;;;;;;;;;;;;;21.10;32.89;101851.47;5119093;28;809;-54
2021/03/28 09:47:53;;;;;;;;;;;;;;;21.26;32.68;101852.25;5119247;28;823;-56
2021/03/28 09:50:37;;;;;;;;;;;;;;;21.14;32.81;101846.19;5117606;28;1211;-51
2021/03/28 09:53:20;;;;;;;;;;;;;;;21.17;33.05;101843.69;5115215;28;1281;-56
2021/03/28 09:55:48;;;;;;;;;;;;;;;20.99;33.22;101845.09;5117246;28;1967;-48
2021/03/28 09:58:29;;;;;;;;;;;;;;;21.01;33.06;101844.81;5117438;28;803;-49
2021/03/28 10:01:09;;;;;;;;;;;;;;;21.10;32.89;101845.94;5119212;28;811;-57
2021/03/28 10:04:07;;;;;;;;;;;;;;;21.15;32.81;101839.56;5118529;28;764;-61
2021/03/28 10:06:32;;;;;;;;;;;;;;;21.18;32.70;101828.78;5079117;27;1175;-50
2021/03/28 10:09:01;;;;;;;;;;;;;;;21.08;32.88;101831.53;5138055;27;954;-49
2021/03/28 10:11:30;;;;;;;;;;;;;;;21.14;32.74;101830.44;5139010;27;786;-54
2021/03/28 10:13:55;;;;;;;;;;;;;;;21.08;32.97;101819.66;5138845;27;877;-56
2021/03/28 10:16:39;;;;;;;;;;;;;;;21.28;32.53;101814.09;5139149;27;1909;-49
2021/03/28 10:19:04;;;;;;;;;;;;;;;;;;5138690;27;818;-55
2021/03/28 10:21:36;;;;;;;;;;;;;;;21.23;32.87;101825.16;5138505;27;980;-55
2021/03/28 10:24:07;;;;;;;;;;;;;;;21.26;32.77;101815.47;5139137;27;875;-55
2021/03/28 10:26:38;;;;;;;;;;;;;;;21.11;33.04;101825.47;5136328;27;814;-58
2021/03/28 10:29:04;;;;;;;;;;;;;;;21.14;32.91;101811.06;5120629;27;873;-49
2021/03/28 10:31:29;;;;;;;;;;;;;;;21.32;32.59;101808.81;5118350;28;855;-52
2021/03/28 10:33:57;;;;;;;;;;;;;;;21.31;32.38;101812.72;5117712;28;850;-59
2021/03/28 10:36:27;;;;;;;;;;;;;;;21.40;32.54;101816.53;5122517;27;1905;-54
2021/03/28 10:39:02;;;;;;;;;;;;;;;21.35;32.71;101808.28;5120493;27;766;-46
2021/03/28 10:41:35;;;;;;;;;;;;;;;21.05;33.03;101804.44;5138150;27;770;-48
2021/03/28 10:44:19;;;;;;;;;;;;;;;21.25;32.63;101813.81;5138672;27;826;-51
2021/03/28 10:47:00;;;;;;;;;;;;;;;21.28;32.63;101814.09;5138601;27;735;-57
2021/03/28 10:49:34;;;;;;;;;;;;;;;21.27;32.59;101811.59;5136564;27;887;-55
2021/03/28 10:52:00;;;;;;;;;;;;;;;21.28;32.66;101803.03;5137964;27;1073;-54
2021/03/28 10:54:28;;;;;;;;;;;;;;;21.47;32.20;101805.19;5138264;27;830;-58
2021/03/28 10:57:12;;;;;;;;;;;;;;;21.56;32.13;101819.28;5137941;27;1988;-58
2021/03/28 10:59:38;;;;;;;;;;;;;;;21.50;32.29;101801.84;5138366;27;822;-54
2021/03/28 11:02:09;;;;;;;;;;;;;;;21.58;32.30;101806.81;5138541;27;756;-54
2021/03/28 11:04:42;;;;;;;;;;;;;;;21.67;32.14;101821.75;5138166;27;818;-49
2021/03/28 11:07:26;;;;;;;;;;;;;;;21.65;32.28;101812.06;5137851;27;944;-56
2021/03/28 11:09:55;;;;;;;;;;;;;;;21.67;32.09;101807.91;5137679;27;771;-56
2021/03/28 11:12:35;;;;;;;;;;;;;;;21.61;32.14;101803.47;5137999;27;747;-47
2021/03/28 11:15:07;;;;;;;;;;;;;;;21.81;31.82;101794.28;5137918;27;1957;-56
2021/03/28 11:17:54;;;;;;;;;;;;;;;21.87;31.67;101803.38;5135800;27;799;-55
2021/03/28 11:20:27;;;;;;;;;;;;;;;21.75;32.17;101795.41;5136777;27;898;-56
2021/03/28 11:23:12;;;;;;;;;;;;;;;21.73;32.11;101803.16;5136619;27;969;-54
2021/03/28 11:25:56;;;;;;;;;;;;;;;21.42;32.57;101806.03;5137434;27;766;-44
2021/03/28 11:28:36;;;;;;;;;;;;;;;21.32;33.03;101803.28;5138159;27;802;-57
2021/03/28 11:31:25;;;;;;;;;;;;;;;20.66;34.10;101802.22;5134513;27;878;-58
2021/03/28 11:33:58;;;;;;;;;;;;;;;20.88;33.44;101788.16;5102927;28;1119;-54
2021/03/28 11:36:27;;;;;;;;;;;;;;;21.27;33.14;101789.47;5119788;27;1905;-48
2021/03/28 11:39:08;;;;;;;;;;;;;;;21.43;32.64;101791.06;5137547;27;786;-58
2021/03/28 11:41:37;;;;;;;;;;;;;;;21.16;33.00;101783.13;5137382;27;759;-54
2021/03/28 11:44:11;;;;;;;;;;;;;;;21.43;32.32;101787.47;5136390;27;1412;-55
2021/03/28 11:46:37;;;;;;;;;;;;;;;21.58;32.30;101790.22;5135667;27;962;-46
2021/03/28 11:49:02;;;;;;;;;;;;;;;21.40;32.69;101788.06;5132062;27;831;-56
2021/03/28 11:51:35;;;;;;;;;;;;;;;21.50;32.29;101775.00;5121006;28;1058;-55
2021/03/28 11:54:11;;;;;;;;;;;;;;;21.53;32.13;101780.00;5115936;28;867;-55
2021/03/28 11:56:36;;;;;;;;;;;;;;;21.55;32.49;101779.72;5116767;28;1902;-52
2021/03/28 11:59:02;;;;;;;;;;;;;;;21.61;32.20;101777.75;5116540;28;1121;-50
2021/03/28 12:01:46;;;;;;;;;;;;;;;21.49;32.64;101773.34;5097825;28;1110;-52
2021/03/28 12:04:24;;;;;;;;;;;;;;;21.56;32.32;101769.47;5117140;28;771;-52
2021/03/28 12:07:10;;;;;;;;;;;;;;;21.57;32.37;101774.72;5116499;28;941;-58
2021/03/28 12:09:35;;;;;;;;;;;;;;;21.68;32.27;101769.97;5104760;28;1505;-61
2021/03/28 12:12:33;;;;;;;;;;;;;;;21.56;32.46;101767.53;5115134;28;1252;-51
2021/03/28 12:15:17;;;;;;;;;;;;;;;21.52;32.53;101764.50;5089940;28;1996;-53
2021/03/28 12:17:43;;;;;;;;;;;;;;;21.60;32.27;101765.03;5114360;28;1291;-57
2021/03/28 12:20:19;;;;;;;;;;;;;;;21.60;32.53;101753.94;5117058;28;771;-45
2021/03/28 12:22:46;;;;;;;;;;;;;;;21.64;32.52;101766.09;5131377;28;1001;-46
2021/03/28 12:25:15;;;;;;;;;;;;;;;21.59;32.61;101757.81;5118518;28;791;-45
2021/03/28 12:27:43;;;;;;;;;;;;;;;21.66;32.44;101761.13;5137515;28;767;-55
2021/03/28 12:30:27;;;;;;;;;;;;;;;21.74;32.47;101763.31;5135784;28;862;-46
2021/03/28 12:32:55;;;;;;;;;;;;;;;21.07;33.55;101755.22;5136852;28;469;-55
2021/03/28 12:35:25;;;;;;;;;;;;;;;20.92;33.75;101752.50;5136896;28;1980;-45
2021/03/28 12:37:50;;;;;;;;;;;;;;;20.61;34.39;101747.00;5135266;28;1016;-49
2021/03/28 12:40:22;;;;;;;;;;;;;;;21.00;33.52;101740.88;5135697;28;795;-45
2021/03/28 12:42:47;;;;;;;;;;;;;;;21.03;33.66;101741.13;5137019;28;790;-46
2021/03/28 12:45:13;;;;;;;;;;;;;;;21.19;33.20;101727.25;5136922;28;810;-61
2021/03/28 12:47:50;;;;;;;;;;;;;;;21.29;33.31;101729.16;5137048;27;770;-57
2021/03/28 12:50:19;;;;;;;;;;;;;;;21.51;32.92;101746.22;5140454;27;1104;-53
2021/03/28 12:52:47;;;;;;;;;;;;;;;21.56;32.57;101745.41;5140453;27;1027;-51
2021/03/28 12:55:13;;;;;;;;;;;;;;;21.49;32.89;101737.38;5140576;27;1969;-54
2021/03/28 12:57:45;;;;;;;;;;;;;;;21.69;32.51;101736.47;5140471;27;814;-50
2021/03/28 13:00:31;;;;;;;;;;;;;;;21.69;32.49;101730.13;5140698;27;743;-59
2021/03/28 13:02:57;;;;;;;;;;;;;;;21.17;33.30;101729.47;5139749;27;1623;-56
2021/03/28 13:05:26;;;;;;;;;;;;;;;20.92;33.92;101733.16;5140241;27;759;-47
2021/03/28 13:07:53;;;;;;;;;;;;;;;20.58;34.46;101725.41;5139199;27;1004;-56
2021/03/28 13:10:25;;;;;;;;;;;;;;;20.86;34.26;101724.03;5138798;27;978;-44
2021/03/28 13:12:57;;;;;;;;;;;;;;;21.25;33.38;101722.53;5140438;27;806;-54
2021/03/28 13:15:27;;;;;;;;;;;;;;;21.36;33.33;101718.59;5138857;27;1906;-46
2021/03/28 13:18:22;;;;;;;;;;;;;;;21.48;32.92;101712.75;5138531;27;836;-45
2021/03/28 13:20:53;;;;;;;;;;;;;;;21.53;33.09;101710.81;5126834;27;2183;-44
2021/03/28 13:23:18;;;;;;;;;;;;;;;21.57;32.87;101716.59;5118996;28;898;-46
2021/03/28 13:25:44;;;;;;;;;;;;;;;21.70;32.82;101715.16;5119703;28;835;-57
2021/03/28 13:28:16;;;;;;;;;;;;;;;21.65;32.65;101706.88;5118026;28;820;-55
2021/03/28 13:30:42;;;;;;;;;;;;;;;21.72;32.73;101701.84;5119118;28;862;-55
2021/03/28 13:33:28;;;;;;;;;;;;;;;20.99;33.82;101701.31;5117093;28;926;-49
2021/03/28 13:35:55;;;;;;;;;;;;;;;20.99;33.98;101689.44;5108180;27;1990;-51